createdAt,value
2023-03-17T00:00:06.802Z,100260.44
2023-03-17T00:02:52.036Z,100252.81
2023-03-17T00:05:37.453Z,100249.56
2023-03-17T00:08:27.725Z,100257.09
2023-03-17T00:11:16.048Z,100257.19
2023-03-17T00:14:01.290Z,100265.09
2023-03-17T00:16:52.295Z,100259.03
2023-03-17T00:19:37.586Z,100247.63
2023-03-17T00:22:22.931Z,100257.97
2023-03-17T00:25:23.663Z,100257.16
2023-03-17T00:28:16.059Z,100243.53
2023-03-17T00:31:01.678Z,100237.31
2023-03-17T00:33:48.338Z,100243.44
2023-03-17T00:36:34.379Z,100239.19
2023-03-17T00:39:19.734Z,100234.25
2023-03-17T00:42:06.525Z,100227.13
2023-03-17T00:44:51.303Z,100224.38
2023-03-17T00:47:37.325Z,100225.97
2023-03-17T00:50:25.563Z,100226.66
2023-03-17T00:53:18.861Z,100218.13
2023-03-17T00:56:05.910Z,100214.75
2023-03-17T00:58:51.410Z,100217.47
2023-03-17T01:01:36.933Z,100216.69
2023-03-17T01:04:22.858Z,100215.75
2023-03-17T01:07:10.780Z,100214.84
2023-03-17T01:09:56.113Z,100216.25
2023-03-17T01:12:41.237Z,100211.13
2023-03-17T01:15:30.286Z,100211.94
2023-03-17T01:18:17.676Z,100217.13
2023-03-17T01:21:03.621Z,100224.31
2023-03-17T01:23:48.912Z,100226.78
2023-03-17T01:26:34.271Z,100241.59
2023-03-17T01:29:19.577Z,100243.44
2023-03-17T01:32:04.933Z,100244.34
2023-03-17T01:34:49.614Z,100233.81
2023-03-17T01:37:34.549Z,100225.78
2023-03-17T01:40:33.813Z,100225.78
2023-03-17T01:43:25.816Z,100228.44
2023-03-17T01:46:17.014Z,100230.06
2023-03-17T01:49:24.485Z,100221.19
2023-03-17T01:52:13.516Z,100217.94
2023-03-17T01:55:05.166Z,100217.16
2023-03-17T01:57:53.422Z,100198.34
2023-03-17T02:00:39.358Z,100194.69
2023-03-17T02:03:25.866Z,100200.84
2023-03-17T02:06:11.590Z,100205.16
2023-03-17T02:08:57.890Z,100198.63
2023-03-17T02:11:44.481Z,100201.22
2023-03-17T02:14:29.856Z,100203.16
2023-03-17T02:17:14.889Z,100194.94
2023-03-17T02:20:29.650Z,100186.84
2023-03-17T02:23:18.872Z,100208.13
2023-03-17T02:26:04.139Z,100213.13
2023-03-17T02:28:49.245Z,100214.22
2023-03-17T02:31:34.147Z,100209.31
2023-03-17T02:34:19.276Z,100223.72
2023-03-17T02:37:05.636Z,100219.81
2023-03-17T02:39:50.601Z,100225.50
2023-03-17T02:42:35.667Z,100221.94
2023-03-17T02:45:21.132Z,100231.06
2023-03-17T02:48:06.070Z,100221.31
2023-03-17T02:50:51.337Z,100226.28
2023-03-17T02:53:36.262Z,100218.13
2023-03-17T02:56:21.044Z,100209.59
2023-03-17T02:59:06.024Z,100207.09
2023-03-17T03:01:50.888Z,100198.31
2023-03-17T03:04:36.118Z,100176.03
2023-03-17T03:07:21.089Z,100171.56
2023-03-17T03:10:06.531Z,100170.16
2023-03-17T03:12:51.641Z,100175.19
2023-03-17T03:15:37.105Z,100182.78
2023-03-17T03:18:22.416Z,100167.97
2023-03-17T03:21:07.810Z,100157.28
2023-03-17T03:23:53.240Z,100152.25
2023-03-17T03:26:38.447Z,100146.34
2023-03-17T03:29:23.326Z,100151.38
2023-03-17T03:32:08.654Z,100148.91
2023-03-17T03:34:53.968Z,100145.72
2023-03-17T03:37:38.884Z,100148.94
2023-03-17T03:40:25.180Z,100150.63
2023-03-17T03:43:22.526Z,100155.22
2023-03-17T03:46:09.012Z,100153.38
2023-03-17T03:48:54.979Z,100143.00
2023-03-17T03:51:40.010Z,100149.16
2023-03-17T03:54:25.310Z,100139.66
2023-03-17T03:57:10.793Z,100125.19
2023-03-17T03:59:55.885Z,100129.91
2023-03-17T04:02:41.955Z,100138.50
2023-03-17T04:05:27.094Z,100140.13
2023-03-17T04:08:12.583Z,100147.81
2023-03-17T04:10:58.371Z,100143.53
2023-03-17T04:13:43.656Z,100148.69
2023-03-17T04:16:29.186Z,100141.81
2023-03-17T04:19:14.783Z,100140.25
2023-03-17T04:22:00.040Z,100134.19
2023-03-17T04:24:45.538Z,100138.63
2023-03-17T04:27:30.545Z,100138.63
2023-03-17T04:30:15.546Z,100142.06
2023-03-17T04:33:00.678Z,100137.53
2023-03-17T04:35:46.056Z,100136.94
2023-03-17T04:38:31.354Z,100140.38
2023-03-17T04:41:16.230Z,100129.25
2023-03-17T04:44:01.511Z,100129.91
2023-03-17T04:46:46.622Z,100116.25
2023-03-17T04:49:31.547Z,100125.88
2023-03-17T04:52:17.080Z,100137.63
2023-03-17T04:55:02.393Z,100135.81
2023-03-17T04:57:47.612Z,100144.22
2023-03-17T05:00:32.924Z,100133.56
2023-03-17T05:03:26.743Z,100132.56
2023-03-17T05:06:13.155Z,100133.97
2023-03-17T05:08:58.611Z,100136.31
2023-03-17T05:11:43.826Z,100121.06
2023-03-17T05:14:28.845Z,100123.16
2023-03-17T05:17:14.815Z,100130.13
2023-03-17T05:20:00.004Z,100134.06
2023-03-17T05:22:44.998Z,100138.28
2023-03-17T05:25:30.307Z,100140.97
2023-03-17T05:28:15.216Z,100147.28
2023-03-17T05:31:00.738Z,100143.50
2023-03-17T05:33:46.037Z,100141.25
2023-03-17T05:36:32.029Z,100142.09
2023-03-17T05:39:17.122Z,100124.00
2023-03-17T05:42:02.727Z,100126.84
2023-03-17T05:44:47.751Z,100135.44
2023-03-17T05:47:33.501Z,100132.97
2023-03-17T05:50:18.745Z,100133.59
2023-03-17T05:53:03.880Z,100130.91
2023-03-17T05:55:49.426Z,100133.78
2023-03-17T05:58:34.253Z,100136.63
2023-03-17T06:01:19.232Z,100129.91
2023-03-17T06:04:04.577Z,100124.09
2023-03-17T06:06:49.971Z,100121.38
2023-03-17T06:09:35.846Z,100101.34
2023-03-17T06:12:21.160Z,100101.75
2023-03-17T06:15:07.043Z,100093.88
2023-03-17T06:17:52.222Z,100065.84
2023-03-17T06:20:37.389Z,100066.63
2023-03-17T06:23:22.376Z,100074.28
2023-03-17T06:26:07.916Z,100048.19
2023-03-17T06:28:52.980Z,100061.03
2023-03-17T06:31:39.565Z,100048.84
2023-03-17T06:34:24.960Z,100053.16
2023-03-17T06:37:10.365Z,100047.06
2023-03-17T06:39:55.439Z,100052.44
2023-03-17T06:42:40.442Z,100064.75
2023-03-17T06:45:26.137Z,100071.19
2023-03-17T06:48:12.127Z,100069.00
2023-03-17T06:50:57.281Z,100061.22
2023-03-17T06:53:42.857Z,100063.78
2023-03-17T06:56:30.482Z,100071.31
2023-03-17T06:59:15.768Z,100058.16
2023-03-17T07:02:00.985Z,100061.03
2023-03-17T07:04:46.337Z,100065.63
2023-03-17T07:07:31.311Z,100063.34
2023-03-17T07:10:16.966Z,100063.53
2023-03-17T07:13:02.281Z,100055.91
2023-03-17T07:15:48.921Z,100057.41
2023-03-17T07:18:33.936Z,100040.00
2023-03-17T07:21:19.278Z,100030.84
2023-03-17T07:24:04.712Z,100008.16
2023-03-17T07:26:49.988Z,100015.75
2023-03-17T07:29:35.041Z,99987.34
2023-03-17T07:32:20.114Z,100004.28
2023-03-17T07:35:06.087Z,99992.63
2023-03-17T07:37:51.486Z,99992.63
2023-03-17T07:40:36.525Z,99989.78
2023-03-17T07:43:21.487Z,99990.41
2023-03-17T07:46:06.959Z,99986.75
2023-03-17T07:48:52.665Z,99975.75
2023-03-17T07:51:38.031Z,99976.38
2023-03-17T07:54:23.207Z,99954.72
2023-03-17T07:57:08.618Z,99953.41
2023-03-17T07:59:54.325Z,99950.28
2023-03-17T08:02:40.024Z,99930.41
2023-03-17T08:05:25.497Z,99923.25
2023-03-17T08:08:10.515Z,99909.44
2023-03-17T08:11:03.677Z,99922.78
2023-03-17T08:13:49.428Z,99921.09
2023-03-17T08:16:34.501Z,99896.19
2023-03-17T08:19:19.517Z,99903.09
2023-03-17T08:22:04.689Z,99902.28
2023-03-17T08:24:49.888Z,99888.44
2023-03-17T08:27:35.008Z,99873.59
2023-03-17T08:30:20.578Z,99897.66
2023-03-17T08:33:05.908Z,99900.28
2023-03-17T08:35:51.270Z,99897.72
2023-03-17T08:38:41.481Z,99873.63
2023-03-17T08:41:27.876Z,99877.19
2023-03-17T08:44:13.996Z,99891.88
2023-03-17T08:46:59.210Z,99865.13
2023-03-17T08:49:44.995Z,99818.50
2023-03-17T08:52:32.205Z,99842.66
2023-03-17T08:55:18.368Z,99884.13
2023-03-17T08:58:03.648Z,99880.72
2023-03-17T09:00:48.840Z,99856.50
2023-03-17T09:03:34.205Z,99876.31
2023-03-17T09:06:19.389Z,99833.19
2023-03-17T09:09:04.736Z,99840.13
2023-03-17T09:11:49.683Z,99868.59
2023-03-17T09:14:43.332Z,99873.78
2023-03-17T09:17:29.222Z,99870.31
2023-03-17T09:20:14.597Z,99903.09
2023-03-17T09:22:59.778Z,99905.72
2023-03-17T09:25:45.140Z,99887.59
2023-03-17T09:28:30.504Z,99891.91
2023-03-17T09:31:15.793Z,99880.69
2023-03-17T09:34:01.311Z,99880.66
2023-03-17T09:36:46.595Z,99900.50
2023-03-17T09:39:32.066Z,99890.09
2023-03-17T09:42:42.432Z,99894.28
2023-03-17T09:45:38.218Z,99912.41
2023-03-17T09:48:31.925Z,99888.19
2023-03-17T09:51:18.819Z,99868.28
2023-03-17T09:54:27.082Z,99874.13
2023-03-17T09:57:37.480Z,99866.41
2023-03-17T10:03:25.959Z,99853.16
2023-03-17T10:06:21.515Z,99837.63
2023-03-17T10:09:27.069Z,99849.75
2023-03-17T10:12:27.099Z,99849.56
2023-03-17T10:15:25.203Z,99881.13
2023-03-17T10:18:13.927Z,99846.38
2023-03-17T10:21:06.517Z,99843.81
2023-03-17T10:23:53.868Z,99842.03
2023-03-17T10:26:48.694Z,99815.03
2023-03-17T10:29:34.266Z,99813.25
2023-03-17T10:32:19.271Z,99849.38
2023-03-17T10:35:04.931Z,99823.06
2023-03-17T10:37:51.123Z,99811.50
2023-03-17T10:40:37.323Z,99790.59
2023-03-17T10:43:28.987Z,99781.44
2023-03-17T10:46:25.971Z,99781.59
2023-03-17T10:49:17.252Z,99810.88
2023-03-17T10:52:07.439Z,99798.91
2023-03-17T10:54:54.541Z,99809.00
2023-03-17T10:57:49.402Z,99821.75
2023-03-17T11:00:37.304Z,99834.47
2023-03-17T11:03:25.299Z,99817.59
2023-03-17T11:06:19.625Z,99825.16
2023-03-17T11:09:08.824Z,99789.44
2023-03-17T11:12:28.062Z,99776.44
2023-03-17T11:15:15.385Z,99786.31
2023-03-17T11:18:21.831Z,99744.97
2023-03-17T11:21:16.600Z,99755.69
2023-03-17T11:24:13.992Z,99732.78
2023-03-17T11:27:31.174Z,99742.97
2023-03-17T11:30:42.584Z,99720.41
2023-03-17T11:33:35.954Z,99734.97
2023-03-17T11:36:37.979Z,99719.56
2023-03-17T11:39:27.914Z,99724.47
2023-03-17T11:42:43.038Z,99713.88
2023-03-17T11:45:31.354Z,99710.44
2023-03-17T11:48:19.852Z,99701.25
2023-03-17T11:51:14.299Z,99741.50
2023-03-17T11:54:31.067Z,99725.81
2023-03-17T11:57:42.521Z,99717.06
2023-03-17T12:00:35.811Z,99712.69
2023-03-17T12:03:41.260Z,99679.63
2023-03-17T12:06:33.898Z,99691.72
2023-03-17T12:09:30.320Z,99678.03
2023-03-17T12:12:26.381Z,99674.13
2023-03-17T12:15:40.156Z,99671.31
2023-03-17T12:18:29.413Z,99655.97
2023-03-17T12:21:38.511Z,99661.47
2023-03-17T12:24:32.782Z,99661.84
2023-03-17T12:27:25.113Z,99701.44
2023-03-17T12:30:31.736Z,99658.44
2023-03-17T12:33:23.213Z,99636.41
2023-03-17T12:36:13.167Z,99602.47
2023-03-17T12:39:01.305Z,99633.25
2023-03-17T12:42:07.646Z,99643.06
2023-03-17T12:45:22.533Z,99638.19
2023-03-17T12:48:19.643Z,99666.38
2023-03-17T12:51:22.853Z,99638.31
2023-03-17T12:54:26.371Z,99632.75
2023-03-17T12:57:19.244Z,99637.69
2023-03-17T13:00:26.518Z,99632.19
2023-03-17T13:03:29.210Z,99599.59
2023-03-17T13:06:19.746Z,99619.06
2023-03-17T13:09:46.171Z,99601.59
2023-03-17T13:12:40.280Z,99589.75
2023-03-17T13:15:25.272Z,99600.09
2023-03-17T13:18:16.755Z,99612.44
2023-03-17T13:21:01.999Z,99601.19
2023-03-17T13:24:16.446Z,99590.81
2023-03-17T13:27:03.512Z,99602.81
2023-03-17T13:29:48.564Z,99589.75
2023-03-17T13:32:35.622Z,99569.03
2023-03-17T13:35:25.239Z,99594.16
2023-03-17T13:38:13.339Z,99606.16
2023-03-17T13:41:22.307Z,99632.19
2023-03-17T13:44:12.598Z,99625.34
2023-03-17T13:47:16.384Z,99614.09
2023-03-17T13:50:08.001Z,99622.94
2023-03-17T13:53:02.014Z,99620.50
2023-03-17T13:56:22.768Z,99611.53
2023-03-17T13:59:16.599Z,99605.44
2023-03-17T14:02:16.112Z,99639.25
2023-03-17T14:05:05.053Z,99647.06
2023-03-17T14:08:00.541Z,99613.25
2023-03-17T14:10:53.961Z,99609.00
2023-03-17T14:13:54.022Z,99627.13
2023-03-17T14:16:45.004Z,99619.16
2023-03-17T14:19:30.844Z,99605.94
2023-03-17T14:22:26.105Z,99610.53
2023-03-17T14:25:21.696Z,99622.31
2023-03-17T14:28:12.393Z,99619.06
2023-03-17T14:31:03.374Z,99626.16
2023-03-17T14:33:52.335Z,99601.66
2023-03-17T14:36:37.667Z,99651.84
2023-03-17T14:39:25.405Z,99651.84
2023-03-17T14:42:11.101Z,99630.53
2023-03-17T14:45:06.048Z,99638.91
2023-03-17T14:47:51.495Z,99644.41
2023-03-17T14:50:36.459Z,99667.22
2023-03-17T14:53:23.860Z,99657.84
2023-03-17T14:56:09.872Z,99680.72
2023-03-17T14:58:55.078Z,99674.47
2023-03-17T15:01:45.922Z,99680.09
2023-03-17T15:04:33.739Z,99680.03
2023-03-17T15:07:45.323Z,99681.16
2023-03-17T15:10:41.985Z,99673.03
2023-03-17T15:13:28.712Z,99679.28
2023-03-17T15:16:29.064Z,99683.03
2023-03-17T15:19:28.903Z,99688.06
2023-03-17T15:22:38.035Z,99686.16
2023-03-17T15:25:32.345Z,99703.66
2023-03-17T15:28:20.109Z,99713.25
2023-03-17T15:31:13.392Z,99709.75
2023-03-17T15:34:00.994Z,99715.13
2023-03-17T15:36:46.385Z,99722.81
2023-03-17T15:39:33.419Z,99721.41
2023-03-17T15:42:20.568Z,99719.63
2023-03-17T15:45:06.501Z,99724.97
2023-03-17T15:47:53.796Z,99724.34
2023-03-17T15:50:39.040Z,99706.03
2023-03-17T15:53:24.441Z,99713.97
2023-03-17T15:56:19.585Z,99717.28
2023-03-17T15:59:08.783Z,99713.13
2023-03-17T16:01:54.480Z,99726.91
2023-03-17T16:04:41.544Z,99727.41
2023-03-17T16:07:27.059Z,99741.31
2023-03-17T16:10:24.300Z,99735.53
2023-03-17T16:13:10.480Z,99734.94
2023-03-17T16:15:59.147Z,99750.44
2023-03-17T16:18:44.606Z,99761.91
2023-03-17T16:21:30.533Z,99785.97
2023-03-17T16:24:21.192Z,99770.34
2023-03-17T16:27:14.556Z,99780.22
2023-03-17T16:29:59.806Z,99800.31
2023-03-17T16:32:45.411Z,99799.59
2023-03-17T16:35:30.796Z,99820.41
2023-03-17T16:38:18.805Z,99817.84
2023-03-17T16:41:15.294Z,99816.09
2023-03-17T16:44:02.452Z,99822.16
2023-03-17T16:46:48.991Z,99828.94
2023-03-17T16:49:35.835Z,99832.50
2023-03-17T16:52:25.126Z,99845.66
2023-03-17T16:55:10.945Z,99850.00
2023-03-17T16:57:59.841Z,99856.25
2023-03-17T17:00:45.885Z,99876.34
2023-03-17T17:03:31.287Z,99879.78
2023-03-17T17:06:18.294Z,99883.28
2023-03-17T17:09:04.002Z,99875.38
2023-03-17T17:11:49.318Z,99869.25
2023-03-17T17:14:34.838Z,99871.84
2023-03-17T17:17:20.260Z,99873.59
2023-03-17T17:20:36.374Z,99872.56
2023-03-17T17:23:25.451Z,99878.69
2023-03-17T17:26:10.803Z,99898.75
2023-03-17T17:28:55.787Z,99884.28
2023-03-17T17:31:40.705Z,99889.44
2023-03-17T17:34:26.316Z,99898.94
2023-03-17T17:37:11.903Z,99898.06
2023-03-17T17:39:57.657Z,99901.47
2023-03-17T17:42:43.773Z,99901.59
2023-03-17T17:45:28.767Z,99903.28
2023-03-17T17:48:19.724Z,99905.91
2023-03-17T17:51:04.822Z,99904.22
2023-03-17T17:53:49.997Z,99912.09
2023-03-17T17:56:34.956Z,99916.50
2023-03-17T17:59:20.402Z,99929.50
2023-03-17T18:02:05.957Z,99909.50
2023-03-17T18:04:51.228Z,99899.94
2023-03-17T18:07:36.831Z,99895.53
2023-03-17T18:10:23.768Z,99898.91
2023-03-17T18:13:09.579Z,99893.00
2023-03-17T18:15:55.138Z,99892.97
2023-03-17T18:18:40.438Z,99895.50
2023-03-17T18:21:25.324Z,99901.63
2023-03-17T18:24:10.650Z,99907.91
2023-03-17T18:26:56.112Z,99941.63
2023-03-17T18:29:41.638Z,99957.31
2023-03-17T18:32:28.378Z,99959.97
2023-03-17T18:35:17.756Z,99961.72
2023-03-17T18:38:03.308Z,99957.41
2023-03-17T18:40:48.476Z,99952.19
2023-03-17T18:43:34.088Z,99945.25
2023-03-17T18:46:19.284Z,99937.47
2023-03-17T18:49:06.362Z,99931.44
2023-03-17T18:51:51.860Z,99926.19
2023-03-17T18:54:37.659Z,99909.81
2023-03-17T18:57:23.177Z,99920.25
2023-03-17T19:00:09.808Z,99931.59
2023-03-17T19:02:55.094Z,99939.38
2023-03-17T19:05:40.512Z,99954.91
2023-03-17T19:08:25.869Z,99965.31
2023-03-17T19:11:13.546Z,99989.53
2023-03-17T19:13:58.786Z,100006.81
2023-03-17T19:16:44.158Z,100011.16
2023-03-17T19:19:29.719Z,99993.88
2023-03-17T19:22:15.194Z,99995.59
2023-03-17T19:25:00.663Z,99982.63
2023-03-17T19:27:46.158Z,99979.16
2023-03-17T19:30:31.803Z,99986.06
2023-03-17T19:33:17.118Z,99990.41
2023-03-17T19:36:07.842Z,99985.22
2023-03-17T19:38:53.250Z,99984.34
2023-03-17T19:41:39.038Z,99990.41
2023-03-17T19:44:24.826Z,99983.50
2023-03-17T19:47:09.966Z,99997.31
2023-03-17T19:49:55.539Z,100021.53
2023-03-17T19:52:40.861Z,100037.09
2023-03-17T19:55:26.458Z,100048.25
2023-03-17T19:58:11.894Z,100058.59
2023-03-17T20:00:57.327Z,100070.69
2023-03-17T20:03:42.911Z,100081.13
2023-03-17T20:06:28.127Z,100055.19
2023-03-17T20:09:13.940Z,100064.66
2023-03-17T20:11:58.843Z,100068.97
2023-03-17T20:14:46.566Z,100062.03
2023-03-17T20:17:31.657Z,100063.75
2023-03-17T20:20:17.018Z,100076.72
2023-03-17T20:23:02.655Z,100081.06
2023-03-17T20:25:48.979Z,100078.41
2023-03-17T20:28:34.185Z,100076.69
2023-03-17T20:31:19.456Z,100078.41
2023-03-17T20:34:04.815Z,100078.41
2023-03-17T20:36:50.414Z,100087.03
2023-03-17T20:39:36.533Z,100075.81
2023-03-17T20:42:21.671Z,100073.28
2023-03-17T20:45:07.394Z,100075.88
2023-03-17T20:47:52.612Z,100068.91
2023-03-17T20:50:38.712Z,100065.41
2023-03-17T20:53:24.375Z,100063.59
2023-03-17T20:56:13.790Z,100079.97
2023-03-17T20:58:59.155Z,100075.69
2023-03-17T21:01:44.385Z,100071.34
2023-03-17T21:04:29.662Z,100082.59
2023-03-17T21:07:17.545Z,100073.16
2023-03-17T21:10:02.600Z,100063.66
2023-03-17T21:12:48.291Z,100067.13
2023-03-17T21:15:33.700Z,100072.28
2023-03-17T21:18:19.139Z,100056.75
2023-03-17T21:21:04.458Z,100062.81
2023-03-17T21:23:49.530Z,100053.31
2023-03-17T21:26:35.228Z,100036.94
2023-03-17T21:29:20.555Z,100020.56
2023-03-17T21:32:06.906Z,100010.22
2023-03-17T21:34:52.185Z,100000.75
2023-03-17T21:37:37.426Z,99986.06
2023-03-17T21:40:24.064Z,99981.75
2023-03-17T21:43:09.599Z,99966.22
2023-03-17T21:45:55.079Z,99971.41
2023-03-17T21:48:40.559Z,99967.97
2023-03-17T21:51:26.128Z,99955.00
2023-03-17T21:54:11.387Z,99962.78
2023-03-17T21:56:56.502Z,99983.50
2023-03-17T21:59:41.592Z,99987.84
2023-03-17T22:02:27.069Z,99983.50
2023-03-17T22:05:12.044Z,99976.59
2023-03-17T22:07:57.414Z,99957.59
2023-03-17T22:10:42.787Z,99942.03
2023-03-17T22:13:28.085Z,99953.25
2023-03-17T22:16:14.903Z,99959.31
2023-03-17T22:19:00.253Z,99964.47
2023-03-17T22:21:45.742Z,99971.34
2023-03-17T22:24:31.245Z,99972.22
2023-03-17T22:27:17.877Z,99983.47
2023-03-17T22:30:04.083Z,99985.19
2023-03-17T22:32:49.356Z,99989.50
2023-03-17T22:35:35.457Z,100011.09
2023-03-17T22:38:21.541Z,100018.03
2023-03-17T22:41:11.333Z,100009.38
2023-03-17T22:43:57.165Z,100007.66
2023-03-17T22:46:42.586Z,100013.69
2023-03-17T22:49:27.831Z,100020.59
2023-03-17T22:52:13.395Z,100021.47
2023-03-17T22:54:58.781Z,100030.97
2023-03-17T22:57:44.229Z,100031.84
2023-03-17T23:00:30.543Z,100030.09
2023-03-17T23:03:16.297Z,100033.56
2023-03-17T23:06:03.723Z,100030.97
2023-03-17T23:08:49.414Z,100046.53
2023-03-17T23:11:34.906Z,100038.75
2023-03-17T23:14:20.168Z,100049.97
2023-03-17T23:17:06.008Z,100056.00
2023-03-17T23:19:51.394Z,100077.56
2023-03-17T23:22:38.392Z,100092.22
2023-03-17T23:25:23.639Z,100099.97
2023-03-17T23:28:09.647Z,100110.28
2023-03-17T23:30:54.719Z,100105.94
2023-03-17T23:33:40.164Z,100117.06
2023-03-17T23:36:25.163Z,100130.84
2023-03-17T23:39:10.525Z,100126.47
2023-03-17T23:41:55.696Z,100143.63
2023-03-17T23:44:40.590Z,100151.41
2023-03-17T23:47:26.045Z,100157.47
2023-03-17T23:50:13.301Z,100152.28
2023-03-17T23:52:58.724Z,100158.16
2023-03-17T23:55:44.028Z,100174.44
2023-03-17T23:58:29.299Z,100179.56
